sensor_id;sensor_type;location;lat;lon;timestamp;pressure;altitude;pressure_sealevel;temperature;humidity
5996;BME280;3026;53.612;7.278;2022-12-07T00:01:42;101335.44;;;5.27;100.00
5996;BME280;3026;53.612;7.278;2022-12-07T00:04:13;101341.97;;;5.25;100.00
5996;BME280;3026;53.612;7.278;2022-12-07T00:06:42;101334.00;;;5.23;100.00
5996;BME280;3026;53.612;7.278;2022-12-07T00:09:11;101332.03;;;5.25;100.00
5996;BME280;3026;53.612;7.278;2022-12-07T00:11:38;101334.72;;;5.25;100.00
5996;BME280;3026;53.612;7.278;2022-12-07T00:14:07;101333.72;;;5.26;100.00
5996;BME280;3026;53.612;7.278;2022-12-07T00:16:34;101328.59;;;5.23;100.00
5996;BME280;3026;53.612;7.278;2022-12-07T00:19:02;101328.59;;;5.23;100.00
5996;BME280;3026;53.612;7.278;2022-12-07T00:21:32;101326.88;;;5.22;100.00
5996;BME280;3026;53.612;7.278;2022-12-07T00:24:00;101319.75;;;5.21;100.00
5996;BME280;3026;53.612;7.278;2022-12-07T00:26:28;101323.78;;;5.27;100.00
5996;BME280;3026;53.612;7.278;2022-12-07T00:28:57;101341.34;;;5.33;100.00
5996;BME280;3026;53.612;7.278;2022-12-07T00:31:28;101328.44;;;5.36;100.00
5996;BME280;3026;53.612;7.278;2022-12-07T00:33:55;101326.59;;;5.37;100.00
5996;BME280;3026;53.612;7.278;2022-12-07T00:36:24;101324.13;;;5.34;100.00
5996;BME280;3026;53.612;7.278;2022-12-07T00:38:52;101328.06;;;5.30;100.00
5996;BME280;3026;53.612;7.278;2022-12-07T00:41:20;101328.06;;;5.30;100.00
5996;BME280;3026;53.612;7.278;2022-12-07T00:43:48;101314.69;;;5.28;100.00
5996;BME280;3026;53.612;7.278;2022-12-07T00:46:16;101327.84;;;5.33;100.00
5996;BME280;3026;53.612;7.278;2022-12-07T00:48:44;101336.69;;;5.35;100.00
5996;BME280;3026;53.612;7.278;2022-12-07T00:51:11;101348.22;;;5.37;100.00
5996;BME280;3026;53.612;7.278;2022-12-07T00:53:39;101368.59;;;5.41;100.00
5996;BME280;3026;53.612;7.278;2022-12-07T00:56:08;101348.34;;;5.35;100.00
5996;BME280;3026;53.612;7.278;2022-12-07T00:58:36;101324.38;;;5.31;100.00
5996;BME280;3026;53.612;7.278;2022-12-07T01:01:05;101332.63;;;5.29;100.00
5996;BME280;3026;53.612;7.278;2022-12-07T01:03:32;101327.47;;;5.26;100.00
5996;BME280;3026;53.612;7.278;2022-12-07T01:05:59;101312.59;;;5.20;100.00
5996;BME280;3026;53.612;7.278;2022-12-07T01:08:26;101314.34;;;5.21;100.00
5996;BME280;3026;53.612;7.278;2022-12-07T01:10:58;101308.94;;;5.21;100.00
5996;BME280;3026;53.612;7.278;2022-12-07T01:13:28;101312.59;;;5.20;100.00
5996;BME280;3026;53.612;7.278;2022-12-07T01:15:57;101312.59;;;5.20;100.00
5996;BME280;3026;53.612;7.278;2022-12-07T01:18:25;101307.44;;;5.17;100.00
5996;BME280;3026;53.612;7.278;2022-12-07T01:20:59;101307.44;;;5.17;100.00
5996;BME280;3026;53.612;7.278;2022-12-07T01:23:26;101307.72;;;5.14;100.00
5996;BME280;3026;53.612;7.278;2022-12-07T01:25:55;101306.84;;;5.14;100.00
5996;BME280;3026;53.612;7.278;2022-12-07T01:28:21;101300.59;;;5.13;100.00
5996;BME280;3026;53.612;7.278;2022-12-07T01:30:57;101307.72;;;5.14;100.00
5996;BME280;3026;53.612;7.278;2022-12-07T01:33:26;101331.06;;;5.15;100.00
5996;BME280;3026;53.612;7.278;2022-12-07T01:35:53;101341.00;;;5.15;100.00
5996;BME280;3026;53.612;7.278;2022-12-07T01:38:20;101324.19;;;5.11;100.00
5996;BME280;3026;53.612;7.278;2022-12-07T01:40:54;101320.25;;;5.15;100.00
5996;BME280;3026;53.612;7.278;2022-12-07T01:43:22;101315.09;;;5.12;100.00
5996;BME280;3026;53.612;7.278;2022-12-07T01:45:50;101324.19;;;5.11;100.00
5996;BME280;3026;53.612;7.278;2022-12-07T01:48:20;101310.81;;;5.10;100.00
5996;BME280;3026;53.612;7.278;2022-12-07T01:50:51;101310.91;;;5.08;100.00
5996;BME280;3026;53.612;7.278;2022-12-07T01:53:19;101310.16;;;5.06;100.00
5996;BME280;3026;53.612;7.278;2022-12-07T01:55:48;101313.88;;;5.05;100.00
5996;BME280;3026;53.612;7.278;2022-12-07T01:58:17;101302.31;;;5.03;100.00
5996;BME280;3026;53.612;7.278;2022-12-07T02:00:44;101300.59;;;5.02;100.00
5996;BME280;3026;53.612;7.278;2022-12-07T02:03:15;101303.31;;;5.02;100.00
5996;BME280;3026;53.612;7.278;2022-12-07T02:05:46;101303.31;;;5.02;100.00
5996;BME280;3026;53.612;7.278;2022-12-07T02:08:14;101318.78;;;5.00;100.00
5996;BME280;3026;53.612;7.278;2022-12-07T02:10:41;101316.31;;;4.97;100.00
5996;BME280;3026;53.612;7.278;2022-12-07T02:13:12;101307.50;;;4.95;100.00
5996;BME280;3026;53.612;7.278;2022-12-07T02:16:06;101312.03;;;4.94;100.00
5996;BME280;3026;53.612;7.278;2022-12-07T02:18:56;101307.75;;;4.92;100.00
5996;BME280;3026;53.612;7.278;2022-12-07T02:21:35;101314.59;;;4.96;100.00
5996;BME280;3026;53.612;7.278;2022-12-07T02:24:37;101298.16;;;4.99;100.00
5996;BME280;3026;53.612;7.278;2022-12-07T02:27:25;101303.56;;;4.99;100.00
5996;BME280;3026;53.612;7.278;2022-12-07T02:30:00;101303.31;;;5.02;100.00
5996;BME280;3026;53.612;7.278;2022-12-07T02:32:37;101295.94;;;5.04;100.00
5996;BME280;3026;53.612;7.278;2022-12-07T02:35:10;101299.63;;;5.03;100.00
5996;BME280;3026;53.612;7.278;2022-12-07T02:37:41;101288.09;;;5.01;100.00
5996;BME280;3026;53.612;7.278;2022-12-07T02:40:12;101283.88;;;4.97;100.00
5996;BME280;3026;53.612;7.278;2022-12-07T02:42:45;101285.63;;;4.98;100.00
5996;BME280;3026;53.612;7.278;2022-12-07T02:45:18;101291.28;;;4.95;100.00
5996;BME280;3026;53.612;7.278;2022-12-07T02:47:51;101297.53;;;4.95;100.00
5996;BME280;3026;53.612;7.278;2022-12-07T02:50:20;101287.84;;;4.93;100.00
5996;BME280;3026;53.612;7.278;2022-12-07T02:52:47;101285.13;;;4.93;100.00
5996;BME280;3026;53.612;7.278;2022-12-07T02:55:16;101290.53;;;4.93;100.00
5996;BME280;3026;53.612;7.278;2022-12-07T02:58:03;101277.03;;;4.93;100.00
5996;BME280;3026;53.612;7.278;2022-12-07T03:00:39;101287.84;;;4.93;100.00
5996;BME280;3026;53.612;7.278;2022-12-07T03:03:11;101286.38;;;4.89;100.00
5996;BME280;3026;53.612;7.278;2022-12-07T03:05:55;101282.44;;;4.93;100.00
5996;BME280;3026;53.612;7.278;2022-12-07T03:08:34;101282.44;;;4.93;100.00
5996;BME280;3026;53.612;7.278;2022-12-07T03:11:06;101287.84;;;4.93;100.00
5996;BME280;3026;53.612;7.278;2022-12-07T03:13:39;101280.47;;;4.95;100.00
5996;BME280;3026;53.612;7.278;2022-12-07T03:16:14;101289.44;;;4.95;100.00
5996;BME280;3026;53.612;7.278;2022-12-07T03:18:46;101286.13;;;4.92;100.00
5996;BME280;3026;53.612;7.278;2022-12-07T03:21:17;101279.25;;;4.88;100.00
5996;BME280;3026;53.612;7.278;2022-12-07T03:23:49;101281.84;;;4.89;100.00
5996;BME280;3026;53.612;7.278;2022-12-07T03:26:19;101280.72;;;4.92;100.00
5996;BME280;3026;53.612;7.278;2022-12-07T03:28:51;101281.84;;;4.89;100.00
5996;BME280;3026;53.612;7.278;2022-12-07T03:31:23;101281.72;;;4.91;100.00
5996;BME280;3026;53.612;7.278;2022-12-07T03:33:55;101279.00;;;4.91;100.00
5996;BME280;3026;53.612;7.278;2022-12-07T03:36:29;101283.28;;;4.93;100.00
5996;BME280;3026;53.612;7.278;2022-12-07T03:39:03;101296.69;;;4.95;100.00
5996;BME280;3026;53.612;7.278;2022-12-07T03:41:34;101305.50;;;4.97;100.00
5996;BME280;3026;53.612;7.278;2022-12-07T03:44:04;101310.91;;;4.97;100.00
5996;BME280;3026;53.612;7.278;2022-12-07T03:46:37;101298.91;;;4.90;100.00
5996;BME280;3026;53.612;7.278;2022-12-07T03:49:11;101281.22;;;4.86;100.00
5996;BME280;3026;53.612;7.278;2022-12-07T03:51:45;101281.47;;;4.83;100.00
5996;BME280;3026;53.612;7.278;2022-12-07T03:54:17;101288.84;;;4.81;100.00
5996;BME280;3026;53.612;7.278;2022-12-07T03:56:46;101281.97;;;4.77;100.00
5996;BME280;3026;53.612;7.278;2022-12-07T03:59:15;101278.56;;;4.75;100.00
5996;BME280;3026;53.612;7.278;2022-12-07T04:01:44;101273.38;;;4.72;100.00
5996;BME280;3026;53.612;7.278;2022-12-07T04:04:12;101271.91;;;4.67;100.00
5996;BME280;3026;53.612;7.278;2022-12-07T04:06:39;101277.31;;;4.67;100.00
5996;BME280;3026;53.612;7.278;2022-12-07T04:09:05;101273.63;;;4.68;100.00
5996;BME280;3026;53.612;7.278;2022-12-07T04:11:33;101275.59;;;4.66;100.00
5996;BME280;3026;53.612;7.278;2022-12-07T04:13:59;101273.88;;;4.65;100.00
5996;BME280;3026;53.612;7.278;2022-12-07T04:16:46;101271.31;;;4.64;100.00
5996;BME280;3026;53.612;7.278;2022-12-07T04:19:13;101271.41;;;4.62;100.00
5996;BME280;3026;53.612;7.278;2022-12-07T04:21:40;101272.41;;;4.61;100.00
5996;BME280;3026;53.612;7.278;2022-12-07T04:24:07;101269.69;;;4.61;100.00
5996;BME280;3026;53.612;7.278;2022-12-07T04:26:35;101272.41;;;4.61;100.00
5996;BME280;3026;53.612;7.278;2022-12-07T04:29:02;101265.28;;;4.60;100.00
5996;BME280;3026;53.612;7.278;2022-12-07T04:31:29;101275.09;;;4.61;100.00
5996;BME280;3026;53.612;7.278;2022-12-07T04:33:57;101273.16;;;4.63;100.00
5996;BME280;3026;53.612;7.278;2022-12-07T04:36:24;101259.88;;;4.60;100.00
5996;BME280;3026;53.612;7.278;2022-12-07T04:38:53;101267.63;;;4.65;100.00
5996;BME280;3026;53.612;7.278;2022-12-07T04:41:21;101263.09;;;4.65;100.00
5996;BME280;3026;53.612;7.278;2022-12-07T04:43:53;101248.84;;;4.63;100.00
5996;BME280;3026;53.612;7.278;2022-12-07T04:46:20;101245.16;;;4.64;100.00
5996;BME280;3026;53.612;7.278;2022-12-07T04:48:47;101243.44;;;4.63;100.00
5996;BME280;3026;53.612;7.278;2022-12-07T04:51:19;101255.97;;;4.64;100.00
5996;BME280;3026;53.612;7.278;2022-12-07T04:53:46;101245.38;;;4.61;100.00
5996;BME280;3026;53.612;7.278;2022-12-07T04:56:13;101248.09;;;4.61;100.00
5996;BME280;3026;53.612;7.278;2022-12-07T04:58:40;101240.50;;;4.55;100.00
5996;BME280;3026;53.612;7.278;2022-12-07T05:01:07;101256.56;;;4.57;100.00
5996;BME280;3026;53.612;7.278;2022-12-07T05:03:35;101251.31;;;4.55;100.00
5996;BME280;3026;53.612;7.278;2022-12-07T05:06:02;101246.75;;;4.56;100.00
5996;BME280;3026;53.612;7.278;2022-12-07T05:08:31;101248.59;;;4.55;100.00
5996;BME280;3026;53.612;7.278;2022-12-07T05:10:58;101243.66;;;4.60;100.00
5996;BME280;3026;53.612;7.278;2022-12-07T05:13:25;101239.97;;;4.61;100.00
5996;BME280;3026;53.612;7.278;2022-12-07T05:15:52;101236.56;;;4.59;100.00
5996;BME280;3026;53.612;7.278;2022-12-07T05:18:19;101238.53;;;4.57;100.00
5996;BME280;3026;53.612;7.278;2022-12-07T05:20:46;101240.50;;;4.55;100.00
5996;BME280;3026;53.612;7.278;2022-12-07T05:23:13;101237.06;;;4.53;100.00
5996;BME280;3026;53.612;7.278;2022-12-07T05:25:41;101236.44;;;4.50;100.00
5996;BME280;3026;53.612;7.278;2022-12-07T05:28:09;101228.47;;;4.48;100.00
5996;BME280;3026;53.612;7.278;2022-12-07T05:30:36;101223.31;;;4.45;100.00
5996;BME280;3026;53.612;7.278;2022-12-07T05:33:03;101227.00;;;4.44;100.00
5996;BME280;3026;53.612;7.278;2022-12-07T05:35:30;101236.69;;;4.47;100.00
5996;BME280;3026;53.612;7.278;2022-12-07T05:37:57;101240.97;;;4.49;100.00
5996;BME280;3026;53.612;7.278;2022-12-07T05:40:24;101242.59;;;4.52;100.00
5996;BME280;3026;53.612;7.278;2022-12-07T05:42:52;101219.63;;;4.46;100.00
5996;BME280;3026;53.612;7.278;2022-12-07T05:45:19;101235.34;;;4.52;100.00
5996;BME280;3026;53.612;7.278;2022-12-07T05:47:46;101243.44;;;4.52;100.00
5996;BME280;3026;53.612;7.278;2022-12-07T05:50:13;101235.84;;;4.46;100.00
5996;BME280;3026;53.612;7.278;2022-12-07T05:52:40;101246.63;;;4.46;100.00
5996;BME280;3026;53.612;7.278;2022-12-07T05:55:08;101234.38;;;4.42;100.00
5996;BME280;3026;53.612;7.278;2022-12-07T05:57:35;101230.19;;;4.38;100.00
5996;BME280;3026;53.612;7.278;2022-12-07T06:00:05;101238.28;;;4.38;100.00
5996;BME280;3026;53.612;7.278;2022-12-07T06:02:30;101238.53;;;4.35;100.00
5996;BME280;3026;53.612;7.278;2022-12-07T06:04:57;101231.41;;;4.34;100.00
5996;BME280;3026;53.612;7.278;2022-12-07T06:07:24;101228.84;;;4.32;100.00
5996;BME280;3026;53.612;7.278;2022-12-07T06:09:51;101237.06;;;4.31;100.00
5996;BME280;3026;53.612;7.278;2022-12-07T06:12:18;101225.63;;;4.27;100.00
5996;BME280;3026;53.612;7.278;2022-12-07T06:14:59;101240.50;;;4.33;100.00
5996;BME280;3026;53.612;7.278;2022-12-07T06:17:27;101236.09;;;4.32;100.00
5996;BME280;3026;53.612;7.278;2022-12-07T06:19:54;101234.84;;;4.36;100.00
5996;BME280;3026;53.612;7.278;2022-12-07T06:22:21;101232.88;;;4.38;100.00
5996;BME280;3026;53.612;7.278;2022-12-07T06:24:48;101233.72;;;4.38;100.00
5996;BME280;3026;53.612;7.278;2022-12-07T06:27:15;101231.91;;;4.39;100.00
5996;BME280;3026;53.612;7.278;2022-12-07T06:29:43;101219.50;;;4.36;100.00
5996;BME280;3026;53.612;7.278;2022-12-07T06:32:10;101228.97;;;4.42;100.00
5996;BME280;3026;53.612;7.278;2022-12-07T06:34:38;101227.25;;;4.41;100.00
5996;BME280;3026;53.612;7.278;2022-12-07T06:37:05;101225.28;;;4.43;100.00
5996;BME280;3026;53.612;7.278;2022-12-07T06:39:32;101232.28;;;4.46;100.00
5996;BME280;3026;53.612;7.278;2022-12-07T06:41:59;101226.00;;;4.45;100.00
5996;BME280;3026;53.612;7.278;2022-12-07T06:44:26;101226.75;;;4.47;100.00
5996;BME280;3026;53.612;7.278;2022-12-07T06:46:53;101224.78;;;4.49;100.00
5996;BME280;3026;53.612;7.278;2022-12-07T06:49:20;101218.63;;;4.47;100.00
5996;BME280;3026;53.612;7.278;2022-12-07T06:51:49;101237.06;;;4.53;100.00
5996;BME280;3026;53.612;7.278;2022-12-07T06:54:16;101249.59;;;4.54;100.00
5996;BME280;3026;53.612;7.278;2022-12-07T06:56:43;101260.13;;;4.57;100.00
5996;BME280;3026;53.612;7.278;2022-12-07T06:59:10;101251.66;;;4.62;100.00
5996;BME280;3026;53.612;7.278;2022-12-07T07:01:37;101255.72;;;4.67;100.00
5996;BME280;3026;53.612;7.278;2022-12-07T07:04:05;101238.03;;;4.63;100.00
5996;BME280;3026;53.612;7.278;2022-12-07T07:06:33;101248.31;;;4.69;100.00
5996;BME280;3026;53.612;7.278;2022-12-07T07:09:02;101239.50;;;4.67;100.00
5996;BME280;3026;53.612;7.278;2022-12-07T07:11:29;101236.94;;;4.66;100.00
5996;BME280;3026;53.612;7.278;2022-12-07T07:13:56;101247.22;;;4.61;100.00
5996;BME280;3026;53.612;7.278;2022-12-07T07:16:27;101243.94;;;4.57;100.00
5996;BME280;3026;53.612;7.278;2022-12-07T07:18:54;101237.28;;;4.50;100.00
5996;BME280;3026;53.612;7.278;2022-12-07T07:21:21;101247.09;;;4.51;100.00
5996;BME280;3026;53.612;7.278;2022-12-07T07:23:48;101241.22;;;4.46;100.00
5996;BME280;3026;53.612;7.278;2022-12-07T07:26:17;101238.28;;;4.49;100.00
5996;BME280;3026;53.612;7.278;2022-12-07T07:28:44;101241.84;;;4.50;100.00
5996;BME280;3026;53.612;7.278;2022-12-07T07:31:11;101254.13;;;4.54;100.00
5996;BME280;3026;53.612;7.278;2022-12-07T07:33:38;101251.31;;;4.55;100.00
5996;BME280;3026;53.612;7.278;2022-12-07T07:36:06;101242.94;;;4.58;100.00
5996;BME280;3026;53.612;7.278;2022-12-07T07:38:33;101253.88;;;4.57;100.00
5996;BME280;3026;53.612;7.278;2022-12-07T07:41:01;101254.84;;;4.56;100.00
5996;BME280;3026;53.612;7.278;2022-12-07T07:43:29;101254.84;;;4.56;100.00
5996;BME280;3026;53.612;7.278;2022-12-07T07:45:56;101261.84;;;4.58;100.00
5996;BME280;3026;53.612;7.278;2022-12-07T07:48:22;101253.00;;;4.56;100.00
5996;BME280;3026;53.612;7.278;2022-12-07T07:50:50;101283.19;;;4.61;100.00
5996;BME280;3026;53.612;7.278;2022-12-07T07:53:17;101286.66;;;4.63;100.00
5996;BME280;3026;53.612;7.278;2022-12-07T07:55:50;101289.47;;;4.62;100.00
5996;BME280;3026;53.612;7.278;2022-12-07T07:58:18;101291.31;;;4.61;100.00
5996;BME280;3026;53.612;7.278;2022-12-07T08:00:46;101292.28;;;4.60;100.00
5996;BME280;3026;53.612;7.278;2022-12-07T08:03:13;101285.41;;;4.56;100.00
5996;BME280;3026;53.612;7.278;2022-12-07T08:05:40;101289.38;;;4.52;100.00
5996;BME280;3026;53.612;7.278;2022-12-07T08:08:07;101275.09;;;4.50;100.00
5996;BME280;3026;53.612;7.278;2022-12-07T08:10:34;101277.31;;;4.45;100.00
5996;BME280;3026;53.612;7.278;2022-12-07T08:13:02;101278.06;;;4.47;100.00
5996;BME280;3026;53.612;7.278;2022-12-07T08:15:40;101272.19;;;4.42;100.00
5996;BME280;3026;53.612;7.278;2022-12-07T08:18:09;101268.63;;;4.42;100.00
5996;BME280;3026;53.612;7.278;2022-12-07T08:20:38;101268.75;;;4.40;100.00
5996;BME280;3026;53.612;7.278;2022-12-07T08:23:05;101275.94;;;4.39;100.00
5996;BME280;3026;53.612;7.278;2022-12-07T08:25:32;101276.06;;;4.38;100.00
5996;BME280;3026;53.612;7.278;2022-12-07T08:27:59;101267.97;;;4.38;100.00
5996;BME280;3026;53.612;7.278;2022-12-07T08:30:27;101262.59;;;4.38;100.00
5996;BME280;3026;53.612;7.278;2022-12-07T08:32:54;101264.66;;;4.34;100.00
5996;BME280;3026;53.612;7.278;2022-12-07T08:35:22;101272.91;;;4.33;100.00
5996;BME280;3026;53.612;7.278;2022-12-07T08:37:49;101277.44;;;4.32;100.00
5996;BME280;3026;53.612;7.278;2022-12-07T08:40:16;101273.75;;;4.33;100.00
5996;BME280;3026;53.612;7.278;2022-12-07T08:42:47;101274.38;;;4.37;100.00
5996;BME280;3026;53.612;7.278;2022-12-07T08:45:16;101274.03;;;4.42;100.00
5996;BME280;3026;53.612;7.278;2022-12-07T08:47:46;101272.03;;;4.44;100.00
5996;BME280;3026;53.612;7.278;2022-12-07T08:50:15;101270.69;;;4.49;100.00
5996;BME280;3026;53.612;7.278;2022-12-07T08:52:44;101266.25;;;4.48;100.00
5996;BME280;3026;53.612;7.278;2022-12-07T08:55:14;101268.72;;;4.62;100.00
5996;BME280;3026;53.612;7.278;2022-12-07T08:57:41;101273.38;;;4.72;100.00
5996;BME280;3026;53.612;7.278;2022-12-07T09:00:09;101270.19;;;4.78;100.00
5996;BME280;3026;53.612;7.278;2022-12-07T09:02:37;101271.50;;;4.83;100.00
5996;BME280;3026;53.612;7.278;2022-12-07T09:05:04;101271.16;;;4.88;100.00
5996;BME280;3026;53.612;7.278;2022-12-07T09:07:33;101268.19;;;4.91;100.00
5996;BME280;3026;53.612;7.278;2022-12-07T09:10:03;101270.28;;;4.98;100.00
5996;BME280;3026;53.612;7.278;2022-12-07T09:12:30;101266.94;;;5.06;100.00
5996;BME280;3026;53.612;7.278;2022-12-07T09:14:57;101267.16;;;5.14;100.00
5996;BME280;3026;53.612;7.278;2022-12-07T09:17:26;101267.63;;;5.19;100.00
5996;BME280;3026;53.612;7.278;2022-12-07T09:19:53;101283.34;;;5.25;100.00
5996;BME280;3026;53.612;7.278;2022-12-07T09:22:20;101275.97;;;5.27;100.00
5996;BME280;3026;53.612;7.278;2022-12-07T09:24:47;101268.56;;;5.30;100.00
5996;BME280;3026;53.612;7.278;2022-12-07T09:27:15;101287.72;;;5.38;100.00
5996;BME280;3026;53.612;7.278;2022-12-07T09:29:43;101286.47;;;5.42;100.00
5996;BME280;3026;53.612;7.278;2022-12-07T09:32:10;101282.69;;;5.44;100.00
5996;BME280;3026;53.612;7.278;2022-12-07T09:34:38;101270.13;;;5.43;100.00
5996;BME280;3026;53.612;7.278;2022-12-07T09:37:05;101283.00;;;5.51;100.00
5996;BME280;3026;53.612;7.278;2022-12-07T09:39:32;101281.50;;;5.58;100.00
5996;BME280;3026;53.612;7.278;2022-12-07T09:42:03;101289.94;;;5.65;100.00
5996;BME280;3026;53.612;7.278;2022-12-07T09:44:32;101288.09;;;5.65;100.00
5996;BME280;3026;53.612;7.278;2022-12-07T09:47:00;101265.75;;;5.63;100.00
5996;BME280;3026;53.612;7.278;2022-12-07T09:49:29;101288.81;;;5.67;100.00
5996;BME280;3026;53.612;7.278;2022-12-07T09:52:02;101281.69;;;5.66;100.00
5996;BME280;3026;53.612;7.278;2022-12-07T09:54:30;101283.41;;;5.67;100.00
5996;BME280;3026;53.612;7.278;2022-12-07T09:56:58;101284.31;;;5.68;100.00
5996;BME280;3026;53.612;7.278;2022-12-07T09:59:25;101285.16;;;5.68;100.00
5996;BME280;3026;53.612;7.278;2022-12-07T10:01:53;101286.88;;;5.69;100.00
5996;BME280;3026;53.612;7.278;2022-12-07T10:04:22;101276.91;;;5.70;100.00
5996;BME280;3026;53.612;7.278;2022-12-07T10:06:51;101273.06;;;5.72;100.00
5996;BME280;3026;53.612;7.278;2022-12-07T10:09:19;101277.50;;;5.73;100.00
5996;BME280;3026;53.612;7.278;2022-12-07T10:12:02;101277.22;;;5.76;100.00
5996;BME280;3026;53.612;7.278;2022-12-07T10:14:31;101268.13;;;5.77;100.00
5996;BME280;3026;53.612;7.278;2022-12-07T10:17:00;101268.13;;;5.77;100.00
5996;BME280;3026;53.612;7.278;2022-12-07T10:19:29;101258.75;;;5.81;100.00
5996;BME280;3026;53.612;7.278;2022-12-07T10:22:02;101260.22;;;5.85;100.00
5996;BME280;3026;53.612;7.278;2022-12-07T10:24:30;101264.00;;;5.94;100.00
5996;BME280;3026;53.612;7.278;2022-12-07T10:26:57;101266.03;;;6.02;100.00
5996;BME280;3026;53.612;7.278;2022-12-07T10:29:29;101264.06;;;6.04;100.00
5996;BME280;3026;53.612;7.278;2022-12-07T10:32:00;101259.53;;;6.04;100.00
5996;BME280;3026;53.612;7.278;2022-12-07T10:34:29;101262.09;;;6.06;100.00
5996;BME280;3026;53.612;7.278;2022-12-07T10:37:16;101260.09;;;6.08;100.00
5996;BME280;3026;53.612;7.278;2022-12-07T10:39:47;101264.53;;;6.09;100.00
5996;BME280;3026;53.612;7.278;2022-12-07T10:42:17;101268.66;;;6.13;100.00
5996;BME280;3026;53.612;7.278;2022-12-07T10:44:44;101258.69;;;6.13;100.00
5996;BME280;3026;53.612;7.278;2022-12-07T10:47:24;101266.72;;;6.15;100.00
5996;BME280;3026;53.612;7.278;2022-12-07T10:50:14;101251.19;;;6.17;100.00
5996;BME280;3026;53.612;7.278;2022-12-07T10:53:00;101245.50;;;6.20;100.00
5996;BME280;3026;53.612;7.278;2022-12-07T10:55:39;101242.50;;;6.23;100.00
5996;BME280;3026;53.612;7.278;2022-12-07T10:58:22;101234.13;;;6.26;100.00
5996;BME280;3026;53.612;7.278;2022-12-07T11:01:00;101234.00;;;6.28;100.00
5996;BME280;3026;53.612;7.278;2022-12-07T11:03:41;101238.31;;;6.40;100.00
5996;BME280;3026;53.612;7.278;2022-12-07T11:06:20;101235.47;;;6.41;100.00
5996;BME280;3026;53.612;7.278;2022-12-07T11:09:02;101235.19;;;6.44;100.00
5996;BME280;3026;53.612;7.278;2022-12-07T11:11:34;101244.66;;;6.60;100.00
5996;BME280;3026;53.612;7.278;2022-12-07T11:14:06;101232.47;;;6.75;100.00
5996;BME280;3026;53.612;7.278;2022-12-07T11:16:48;101233.06;;;6.88;100.00
5996;BME280;3026;53.612;7.278;2022-12-07T11:19:42;101225.50;;;6.92;100.00
5996;BME280;3026;53.612;7.278;2022-12-07T11:22:20;101221.94;;;6.91;100.00
5996;BME280;3026;53.612;7.278;2022-12-07T11:24:57;101224.94;;;6.88;100.00
5996;BME280;3026;53.612;7.278;2022-12-07T11:27:37;101223.50;;;6.84;100.00
5996;BME280;3026;53.612;7.278;2022-12-07T11:30:16;101212.19;;;6.79;100.00
5996;BME280;3026;53.612;7.278;2022-12-07T11:32:53;101212.78;;;6.73;100.00
5996;BME280;3026;53.612;7.278;2022-12-07T11:35:31;101203.66;;;6.74;100.00
5996;BME280;3026;53.612;7.278;2022-12-07T11:38:08;101211.31;;;6.69;100.00
5996;BME280;3026;53.612;7.278;2022-12-07T11:40:37;101200.75;;;6.66;100.00
5996;BME280;3026;53.612;7.278;2022-12-07T11:43:13;101207.91;;;6.67;100.00
5996;BME280;3026;53.612;7.278;2022-12-07T11:45:42;101202.47;;;6.67;100.00
5996;BME280;3026;53.612;7.278;2022-12-07T11:48:15;101200.75;;;6.66;100.00
5996;BME280;3026;53.612;7.278;2022-12-07T11:50:48;101200.47;;;6.69;100.00
5996;BME280;3026;53.612;7.278;2022-12-07T11:53:21;101203.91;;;6.71;100.00
5996;BME280;3026;53.612;7.278;2022-12-07T11:55:51;101204.66;;;6.73;100.00
5996;BME280;3026;53.612;7.278;2022-12-07T11:58:37;101195.06;;;6.69;100.00
5996;BME280;3026;53.612;7.278;2022-12-07T12:01:13;101188.94;;;6.67;100.00
5996;BME280;3026;53.612;7.278;2022-12-07T12:03:44;101192.34;;;6.69;100.00
5996;BME280;3026;53.612;7.278;2022-12-07T12:06:13;101187.78;;;6.69;100.00
5996;BME280;3026;53.612;7.278;2022-12-07T12:08:45;101185.22;;;6.68;100.00
5996;BME280;3026;53.612;7.278;2022-12-07T12:11:24;101187.63;;;6.71;100.00
5996;BME280;3026;53.612;7.278;2022-12-07T12:14:05;101185.94;;;6.70;100.00
5996;BME280;3026;53.612;7.278;2022-12-07T12:16:57;101180.25;;;6.73;100.00
5996;BME280;3026;53.612;7.278;2022-12-07T12:19:33;101174.69;;;6.75;100.00
5996;BME280;3026;53.612;7.278;2022-12-07T12:22:09;101176.97;;;6.79;100.00
5996;BME280;3026;53.612;7.278;2022-12-07T12:24:40;101177.13;;;6.87;100.00
5996;BME280;3026;53.612;7.278;2022-12-07T12:27:09;101178.25;;;6.94;100.00
5996;BME280;3026;53.612;7.278;2022-12-07T12:29:43;101170.59;;;6.99;100.00
5996;BME280;3026;53.612;7.278;2022-12-07T12:32:15;101178.00;;;6.97;100.00
5996;BME280;3026;53.612;7.278;2022-12-07T12:34:59;101162.00;;;6.94;100.00
5996;BME280;3026;53.612;7.278;2022-12-07T12:37:42;101170.56;;;6.90;100.00
5996;BME280;3026;53.612;7.278;2022-12-07T12:40:37;101172.00;;;6.84;100.00
5996;BME280;3026;53.612;7.278;2022-12-07T12:46:38;101166.97;;;6.70;100.00
5996;BME280;3026;53.612;7.278;2022-12-07T12:49:35;101161.97;;;6.65;100.00
5996;BME280;3026;53.612;7.278;2022-12-07T12:58:36;101156.84;;;6.82;100.00
5996;BME280;3026;53.612;7.278;2022-12-07T13:01:38;101156.28;;;6.78;100.00
5996;BME280;3026;53.612;7.278;2022-12-07T13:07:53;101143.44;;;6.70;100.00
5996;BME280;3026;53.612;7.278;2022-12-07T13:10:42;101146.44;;;6.67;100.00
5996;BME280;3026;53.612;7.278;2022-12-07T13:13:31;101150.28;;;6.65;100.00
5996;BME280;3026;53.612;7.278;2022-12-07T13:22:46;101148.22;;;6.48;100.00
5996;BME280;3026;53.612;7.278;2022-12-07T13:25:21;101139.38;;;6.46;100.00
5996;BME280;3026;53.612;7.278;2022-12-07T13:27:56;101141.09;;;6.47;100.00
5996;BME280;3026;53.612;7.278;2022-12-07T13:30:26;101144.81;;;6.46;100.00
5996;BME280;3026;53.612;7.278;2022-12-07T13:32:55;101143.09;;;6.44;100.00
5996;BME280;3026;53.612;7.278;2022-12-07T13:35:28;101139.69;;;6.42;100.00
5996;BME280;3026;53.612;7.278;2022-12-07T13:37:55;101133.25;;;6.43;100.00
5996;BME280;3026;53.612;7.278;2022-12-07T13:40:23;101135.97;;;6.43;100.00
5996;BME280;3026;53.612;7.278;2022-12-07T13:42:58;101136.25;;;6.40;100.00
5996;BME280;3026;53.612;7.278;2022-12-07T13:45:27;101147.66;;;6.44;100.00
5996;BME280;3026;53.612;7.278;2022-12-07T13:48:10;101141.38;;;6.43;100.00
5996;BME280;3026;53.612;7.278;2022-12-07T13:50:40;101126.41;;;6.39;100.00